Time;durP1;ratioP1;P1;durP2;ratioP2;P2;SDS_P1;SDS_P2;PMS_P1;PMS_P2;Temp;Humidity;BMP_temperature;BMP_pressure;BME280_temperature;BME280_humidity;BME280_pressure;Samples;Min_cycle;Max_cycle;Signal;HPM_P1;HPM_P2
2023/07/15 00:01:02;;;;;;;;;;;;;;;20.23;33.88;100292.97;4897201;28;97841;-70
2023/07/15 00:03:29;;;;;;;;;;;;;;;20.22;34.10;100291.38;4895557;28;98300;-70
2023/07/15 00:05:57;;;;;;;;;;;;;;;20.19;34.02;100286.56;4919561;28;98305;-70
2023/07/15 00:08:23;;;;;;;;;;;;;;;20.18;34.04;100290.47;4901847;28;97985;-70
2023/07/15 00:10:50;;;;;;;;;;;;;;;20.20;33.98;100294.47;4900969;28;98021;-70
2023/07/15 00:13:18;;;;;;;;;;;;;;;20.20;34.05;100290.91;4882119;28;99050;-70
2023/07/15 00:15:47;;;;;;;;;;;;;;;20.20;34.05;100283.53;4898314;28;98216;-69
2023/07/15 00:18:14;;;;;;;;;;;;;;;20.21;33.99;100287.84;4901394;28;98077;-70
2023/07/15 00:20:44;;;;;;;;;;;;;;;20.21;34.13;100281.59;4900845;28;98855;-70
2023/07/15 00:23:31;;;;;;;;;;;;;;;20.20;34.01;100277.22;4893082;28;98469;-69
2023/07/15 00:25:58;;;;;;;;;;;;;;;20.17;34.02;100265.03;4899251;28;100251;-70
2023/07/15 00:28:25;;;;;;;;;;;;;;;20.17;34.18;100272.44;4901002;28;98131;-69
2023/07/15 00:30:54;;;;;;;;;;;;;;;20.14;34.00;100271.16;4895613;28;99268;-70
2023/07/15 00:33:21;;;;;;;;;;;;;;;20.11;34.09;100269.09;4901808;28;98213;-70
2023/07/15 00:35:48;;;;;;;;;;;;;;;20.06;34.17;100270.13;4902793;28;99554;-69
2023/07/15 00:38:16;;;;;;;;;;;;;;;20.02;34.13;100262.91;4901223;28;100670;-70
2023/07/15 00:40:45;;;;;;;;;;;;;;;19.98;34.14;100265.53;4916973;28;98272;-69
2023/07/15 00:43:49;;;;;;;;;;;;;;;19.95;34.25;100257.19;4917132;28;99447;-69
2023/07/15 00:46:19;;;;;;;;;;;;;;;19.91;34.23;100248.03;4932256;28;98159;-69
2023/07/15 00:48:48;;;;;;;;;;;;;;;19.87;34.10;100247.91;4935778;28;98174;-69
2023/07/15 00:51:15;;;;;;;;;;;;;;;19.82;34.24;100246.19;4912666;28;98117;-70
2023/07/15 00:53:42;;;;;;;;;;;;;;;19.77;34.06;100254.59;4900111;28;98107;-70
2023/07/15 00:56:09;;;;;;;;;;;;;;;19.72;34.28;100254.78;4900749;28;97752;-70
2023/07/15 00:58:36;;;;;;;;;;;;;;;19.67;34.33;100248.72;4893141;28;97846;-70
2023/07/15 01:01:06;;;;;;;;;;;;;;;19.63;34.27;100247.78;4902494;28;97781;-69
2023/07/15 01:03:33;;;;;;;;;;;;;;;19.59;34.38;100255.81;4914123;28;98180;-69
2023/07/15 01:05:59;;;;;;;;;;;;;;;19.56;34.43;100246.34;4901920;28;98202;-68
2023/07/15 01:08:28;;;;;;;;;;;;;;;19.53;34.42;100251.69;4920502;28;98004;-70
2023/07/15 01:10:55;;;;;;;;;;;;;;;19.51;34.18;100245.75;4913565;28;97952;-69
2023/07/15 01:13:21;;;;;;;;;;;;;;;19.47;34.37;100251.09;4901643;28;99293;-69
2023/07/15 01:15:48;;;;;;;;;;;;;;;19.44;34.50;100249.00;4902491;28;98143;-70
2023/07/15 01:18:15;;;;;;;;;;;;;;;19.37;34.39;100249.56;4912558;28;97888;-69
2023/07/15 01:20:42;;;;;;;;;;;;;;;19.31;34.57;100252.81;4903438;28;98418;-70
2023/07/15 01:23:09;;;;;;;;;;;;;;;19.22;34.40;100246.59;4902370;28;98967;-69
2023/07/15 01:25:35;;;;;;;;;;;;;;;19.17;34.36;100233.91;4897245;28;98293;-71
2023/07/15 01:28:02;;;;;;;;;;;;;;;19.12;34.63;100239.56;4894550;28;98718;-70
2023/07/15 01:30:29;;;;;;;;;;;;;;;19.10;34.49;100244.56;4903690;28;98934;-69
2023/07/15 01:32:56;;;;;;;;;;;;;;;19.07;34.35;100245.22;4901007;28;97914;-69
2023/07/15 01:35:22;;;;;;;;;;;;;;;19.03;34.34;100253.28;4909748;28;97995;-70
2023/07/15 01:37:48;;;;;;;;;;;;;;;18.99;34.45;100248.81;4909774;28;98438;-69
2023/07/15 01:40:15;;;;;;;;;;;;;;;18.93;34.48;100250.91;4913467;28;98163;-70
2023/07/15 01:42:41;;;;;;;;;;;;;;;18.89;34.57;100249.97;4902722;28;97857;-70
2023/07/15 01:45:11;;;;;;;;;;;;;;;18.83;34.39;100237.63;4900550;28;98094;-69
2023/07/15 01:47:38;;;;;;;;;;;;;;;18.81;34.64;100239.88;4897219;28;98023;-70
2023/07/15 01:50:08;;;;;;;;;;;;;;;18.78;34.53;100233.13;4904824;28;97920;-70
2023/07/15 01:52:34;;;;;;;;;;;;;;;18.74;34.68;100229.47;4902297;28;98458;-69
2023/07/15 01:55:00;;;;;;;;;;;;;;;18.72;34.60;100233.66;4889364;28;99646;-69
2023/07/15 01:57:29;;;;;;;;;;;;;;;18.68;34.72;100225.28;4897586;28;98173;-70
2023/07/15 01:59:57;;;;;;;;;;;;;;;18.67;34.64;100222.88;4918366;28;98206;-70
2023/07/15 02:02:24;;;;;;;;;;;;;;;18.63;34.64;100225.47;4882214;28;98555;-69
2023/07/15 02:04:50;;;;;;;;;;;;;;;18.59;34.59;100219.88;4910910;28;98162;-69
2023/07/15 02:07:17;;;;;;;;;;;;;;;18.56;34.58;100217.00;4928703;28;98996;-70
2023/07/15 02:09:43;;;;;;;;;;;;;;;18.52;34.85;100222.31;4904332;28;98277;-69
2023/07/15 02:12:11;;;;;;;;;;;;;;;18.49;34.88;100211.22;4899744;28;97917;-69
2023/07/15 02:14:38;;;;;;;;;;;;;;;18.44;34.79;100214.94;4901654;28;98362;-69
2023/07/15 02:17:05;;;;;;;;;;;;;;;18.39;34.81;100224.09;4920987;28;97975;-69
2023/07/15 02:19:31;;;;;;;;;;;;;;;18.36;34.61;100221.22;4898104;28;99628;-70
2023/07/15 02:21:59;;;;;;;;;;;;;;;18.34;34.74;100224.25;4883841;28;98166;-69
2023/07/15 02:24:26;;;;;;;;;;;;;;;18.31;34.73;100230.41;4899830;28;98131;-69
2023/07/15 02:26:53;;;;;;;;;;;;;;;18.27;34.74;100217.69;4913160;28;99191;-70
2023/07/15 02:29:19;;;;;;;;;;;;;;;18.23;34.75;100217.53;4893061;28;99079;-69
2023/07/15 02:31:47;;;;;;;;;;;;;;;18.22;34.72;100209.69;4898586;28;98931;-70
2023/07/15 02:34:13;;;;;;;;;;;;;;;18.19;34.64;100205.69;4914392;28;98880;-70
2023/07/15 02:36:40;;;;;;;;;;;;;;;18.18;34.88;100206.81;4908673;28;98325;-70
2023/07/15 02:39:08;;;;;;;;;;;;;;;18.16;34.67;100211.81;4909700;28;98266;-69
2023/07/15 02:41:35;;;;;;;;;;;;;;;18.13;34.68;100212.44;4900855;28;98372;-70
2023/07/15 02:44:01;;;;;;;;;;;;;;;18.12;34.91;100210.84;4891859;28;98744;-70
2023/07/15 02:46:28;;;;;;;;;;;;;;;18.18;34.85;100209.53;4909976;28;99588;-69
2023/07/15 02:48:54;;;;;;;;;;;;;;;18.24;34.99;100221.09;4909820;28;98608;-70
2023/07/15 02:51:20;;;;;;;;;;;;;;;18.29;34.84;100221.72;4892021;28;98197;-70
2023/07/15 02:53:49;;;;;;;;;;;;;;;18.32;34.94;100228.47;4891557;28;98502;-69
2023/07/15 02:56:16;;;;;;;;;;;;;;;18.34;34.81;100224.25;4906493;28;98927;-70
2023/07/15 02:58:42;;;;;;;;;;;;;;;18.38;34.83;100227.94;4903077;28;99839;-70
2023/07/15 03:01:08;;;;;;;;;;;;;;;18.41;34.83;100223.78;4891453;28;98182;-70
2023/07/15 03:03:37;;;;;;;;;;;;;;;18.42;34.92;100219.91;4895636;28;98429;-70
2023/07/15 03:06:03;;;;;;;;;;;;;;;18.42;34.95;100225.38;4884110;28;99573;-69
2023/07/15 03:08:32;;;;;;;;;;;;;;;18.41;35.00;100221.03;4904847;28;101979;-69
2023/07/15 03:10:59;;;;;;;;;;;;;;;18.38;35.03;100222.47;4907824;28;98151;-69
2023/07/15 03:13:26;;;;;;;;;;;;;;;18.36;34.95;100213.84;4906113;28;98234;-70
2023/07/15 03:15:53;;;;;;;;;;;;;;;18.34;35.10;100218.00;4884819;28;98884;-71
2023/07/15 03:18:25;;;;;;;;;;;;;;;18.32;34.96;100218.34;4893614;28;97862;-70
2023/07/15 03:20:52;;;;;;;;;;;;;;;18.31;35.03;100222.22;4892166;28;97983;-70
2023/07/15 03:23:19;;;;;;;;;;;;;;;18.29;35.11;100220.91;4907739;28;99463;-69
2023/07/15 03:25:45;;;;;;;;;;;;;;;18.26;35.12;100222.34;4903171;28;98680;-70
2023/07/15 03:28:12;;;;;;;;;;;;;;;18.26;35.02;100224.28;4903401;28;97943;-69
2023/07/15 03:30:39;;;;;;;;;;;;;;;18.22;35.29;100215.94;4894346;28;97973;-69
2023/07/15 03:33:05;;;;;;;;;;;;;;;18.20;35.02;100218.22;4885332;28;100782;-69
2023/07/15 03:35:32;;;;;;;;;;;;;;;18.18;35.34;100214.19;4906101;28;98616;-70
2023/07/15 03:37:59;;;;;;;;;;;;;;;18.15;35.18;100221.09;4893183;28;98185;-70
2023/07/15 03:40:25;;;;;;;;;;;;;;;18.13;35.22;100210.53;4892985;28;98043;-70
2023/07/15 03:42:53;;;;;;;;;;;;;;;18.12;35.18;100211.66;4902703;28;98104;-70
2023/07/15 03:45:21;;;;;;;;;;;;;;;18.10;35.20;100213.88;4911562;28;98196;-70
2023/07/15 03:47:47;;;;;;;;;;;;;;;18.06;35.02;100212.13;4907383;28;98317;-70
2023/07/15 03:50:14;;;;;;;;;;;;;;;18.01;35.14;100212.31;4890666;28;98239;-70
2023/07/15 03:52:40;;;;;;;;;;;;;;;17.98;35.09;100215.69;4904628;28;98073;-69
2023/07/15 03:55:07;;;;;;;;;;;;;;;17.97;35.13;100212.16;4905089;28;98341;-69
2023/07/15 03:57:33;;;;;;;;;;;;;;;18.00;35.18;100214.25;4871443;28;99198;-69
2023/07/15 03:59:59;;;;;;;;;;;;;;;18.04;35.21;100209.75;4883739;28;98260;-70
2023/07/15 04:02:27;;;;;;;;;;;;;;;18.07;35.14;100219.19;4886207;28;101397;-70
2023/07/15 04:04:53;;;;;;;;;;;;;;;18.07;35.21;100217.25;4918064;28;98293;-69
2023/07/15 04:07:20;;;;;;;;;;;;;;;18.07;35.05;100216.47;4890984;28;98189;-69
2023/07/15 04:09:47;;;;;;;;;;;;;;;18.09;35.00;100214.22;4874909;28;98193;-70
2023/07/15 04:12:14;;;;;;;;;;;;;;;18.12;35.15;100213.59;4892055;28;98678;-69
2023/07/15 04:14:42;;;;;;;;;;;;;;;18.14;35.17;100208.59;4899780;28;99478;-70
2023/07/15 04:17:08;;;;;;;;;;;;;;;18.20;35.08;100211.97;4893212;28;98061;-70
2023/07/15 04:19:36;;;;;;;;;;;;;;;18.27;35.17;100215.78;4914230;28;97917;-70
2023/07/15 04:22:02;;;;;;;;;;;;;;;18.34;35.02;100213.34;4895018;28;98174;-69
2023/07/15 04:24:29;;;;;;;;;;;;;;;18.45;34.97;100204.81;4913637;28;98045;-69
2023/07/15 04:26:55;;;;;;;;;;;;;;;18.53;34.97;100201.25;4900998;28;98147;-70
2023/07/15 04:29:22;;;;;;;;;;;;;;;18.63;34.91;100206.38;4902286;28;98071;-70
2023/07/15 04:31:49;;;;;;;;;;;;;;;18.73;34.89;100205.22;4902088;28;98274;-70
2023/07/15 04:34:16;;;;;;;;;;;;;;;18.82;34.97;100203.25;4897453;28;99094;-70
2023/07/15 04:36:43;;;;;;;;;;;;;;;18.91;34.79;100203.22;4905612;28;99448;-70
2023/07/15 04:39:10;;;;;;;;;;;;;;;18.97;34.69;100199.16;4900911;28;98162;-70
2023/07/15 04:41:36;;;;;;;;;;;;;;;19.03;34.69;100203.31;4901326;28;98022;-70
2023/07/15 04:44:03;;;;;;;;;;;;;;;19.09;34.82;100207.44;4875835;28;98153;-70
2023/07/15 04:46:30;;;;;;;;;;;;;;;19.15;34.86;100203.41;4910948;28;98943;-71
2023/07/15 04:48:58;;;;;;;;;;;;;;;19.22;34.79;100200.16;4901233;28;98071;-70
2023/07/15 04:51:25;;;;;;;;;;;;;;;19.28;34.83;100198.81;4909478;28;98279;-71
2023/07/15 04:53:51;;;;;;;;;;;;;;;19.32;34.83;100197.81;4915606;28;98886;-71
2023/07/15 04:56:18;;;;;;;;;;;;;;;19.36;34.78;100200.69;4895439;28;100960;-71
2023/07/15 04:58:44;;;;;;;;;;;;;;;19.43;34.89;100202.91;4900562;28;97861;-72
2023/07/15 05:01:11;;;;;;;;;;;;;;;19.47;34.95;100193.69;4896318;28;98492;-71
2023/07/15 05:03:40;;;;;;;;;;;;;;;19.54;35.01;100193.97;4898183;28;98171;-74
2023/07/15 05:06:08;;;;;;;;;;;;;;;19.62;34.91;100195.06;4895576;28;98927;-72
2023/07/15 05:08:34;;;;;;;;;;;;;;;19.70;34.93;100202.38;4893756;28;98733;-72
2023/07/15 05:11:01;;;;;;;;;;;;;;;19.80;34.62;100204.69;4901024;28;98885;-74
2023/07/15 05:13:28;;;;;;;;;;;;;;;19.92;34.92;100200.41;4908572;28;98911;-73
2023/07/15 05:15:56;;;;;;;;;;;;;;;20.07;34.75;100202.53;4911364;28;98080;-72
2023/07/15 05:18:23;;;;;;;;;;;;;;;20.27;34.46;100198.91;4897300;28;98382;-73
2023/07/15 05:20:50;;;;;;;;;;;;;;;20.49;34.41;100195.00;4889884;28;98118;-72
2023/07/15 05:23:17;;;;;;;;;;;;;;;20.69;34.29;100195.25;4910193;28;98613;-74
2023/07/15 05:25:43;;;;;;;;;;;;;;;20.90;34.24;100200.63;4902383;28;98895;-73
2023/07/15 05:28:11;;;;;;;;;;;;;;;21.08;34.33;100197.31;4911985;28;98092;-72
2023/07/15 05:30:37;;;;;;;;;;;;;;;21.25;34.09;100196.25;4893274;28;98995;-73
2023/07/15 05:33:04;;;;;;;;;;;;;;;21.46;33.90;100198.06;4911253;28;98182;-73
2023/07/15 05:35:31;;;;;;;;;;;;;;;21.67;33.96;100195.94;4889427;28;98798;-74
2023/07/15 05:37:57;;;;;;;;;;;;;;;21.86;33.97;100198.03;4903622;28;98624;-73
2023/07/15 05:40:24;;;;;;;;;;;;;;;22.05;33.91;100192.69;4890744;28;98511;-72
2023/07/15 05:42:51;;;;;;;;;;;;;;;22.29;33.93;100191.00;4890980;28;98095;-72
2023/07/15 05:45:17;;;;;;;;;;;;;;;22.52;33.71;100193.94;4892707;28;98190;-72
2023/07/15 05:47:44;;;;;;;;;;;;;;;22.77;33.79;100192.56;4892798;28;98259;-73
2023/07/15 05:50:10;;;;;;;;;;;;;;;23.05;33.59;100197.19;4892217;28;98551;-73
2023/07/15 05:52:37;;;;;;;;;;;;;;;23.35;33.53;100194.72;4877600;28;98002;-72
2023/07/15 05:55:04;;;;;;;;;;;;;;;23.65;33.30;100192.19;4885250;28;98282;-72
2023/07/15 05:57:31;;;;;;;;;;;;;;;23.98;33.15;100188.16;4886851;28;98395;-73
2023/07/15 05:59:58;;;;;;;;;;;;;;;24.35;33.09;100190.38;4887807;28;98598;-73
2023/07/15 06:02:26;;;;;;;;;;;;;;;24.72;33.14;100185.94;4886560;28;98034;-73
2023/07/15 06:04:53;;;;;;;;;;;;;;;25.15;33.12;100183.84;4881105;28;98090;-73
2023/07/15 06:07:20;;;;;;;;;;;;;;;25.58;32.95;100189.91;4888011;28;98238;-72
2023/07/15 06:09:49;;;;;;;;;;;;;;;26.00;33.11;100177.00;4887340;28;98258;-72
2023/07/15 06:12:15;;;;;;;;;;;;;;;26.42;32.75;100187.69;4886857;28;97957;-73
2023/07/15 06:14:41;;;;;;;;;;;;;;;26.96;32.68;100180.63;4885346;28;98292;-72
2023/07/15 06:17:08;;;;;;;;;;;;;;;27.71;32.35;100181.03;4887900;28;98521;-73
2023/07/15 06:19:35;;;;;;;;;;;;;;;28.19;32.38;100186.31;4882944;28;99818;-72
2023/07/15 06:22:01;;;;;;;;;;;;;;;28.90;32.11;100188.31;4890167;28;99897;-73
2023/07/15 06:24:27;;;;;;;;;;;;;;;29.24;32.29;100183.13;4883399;28;98543;-70
2023/07/15 06:26:55;;;;;;;;;;;;;;;29.89;31.88;100189.22;4899764;28;97986;-71
2023/07/15 06:29:24;;;;;;;;;;;;;;;30.31;31.85;100185.41;4887310;28;98950;-70
2023/07/15 06:31:51;;;;;;;;;;;;;;;30.73;31.86;100180.72;4883275;28;99372;-70
2023/07/15 06:34:18;;;;;;;;;;;;;;;31.52;31.43;100183.47;4884852;28;100124;-70
2023/07/15 06:36:45;;;;;;;;;;;;;;;32.39;30.98;100191.44;4879732;28;98445;-70
2023/07/15 06:39:11;;;;;;;;;;;;;;;33.16;30.62;100182.13;4885408;28;98401;-70
2023/07/15 06:41:37;;;;;;;;;;;;;;;34.56;30.01;100191.09;4900487;28;98551;-71
2023/07/15 06:44:04;;;;;;;;;;;;;;;35.75;29.12;100187.41;4866786;28;98076;-70
2023/07/15 06:46:30;;;;;;;;;;;;;;;35.97;29.36;100189.56;4900423;28;98320;-69
2023/07/15 06:48:57;;;;;;;;;;;;;;;35.82;29.49;100183.63;4887506;28;98368;-70
2023/07/15 06:51:24;;;;;;;;;;;;;;;35.88;29.87;100184.63;4885847;28;98212;-69
2023/07/15 06:53:51;;;;;;;;;;;;;;;35.78;29.95;100174.53;4878857;28;98399;-69
2023/07/15 06:56:17;;;;;;;;;;;;;;;35.58;30.24;100177.53;4903016;28;98619;-71
2023/07/15 06:58:43;;;;;;;;;;;;;;;35.58;30.14;100175.53;4900231;28;98527;-71
2023/07/15 07:01:09;;;;;;;;;;;;;;;35.67;30.00;100166.44;4883198;28;98415;-69
2023/07/15 07:03:36;;;;;;;;;;;;;;;35.71;30.31;100161.53;4889251;28;98233;-68
2023/07/15 07:06:02;;;;;;;;;;;;;;;35.70;30.26;100156.38;4886009;28;97875;-69
2023/07/15 07:08:28;;;;;;;;;;;;;;;35.80;30.22;100153.22;4899145;28;99084;-69
2023/07/15 07:10:54;;;;;;;;;;;;;;;36.08;30.28;100164.81;4893939;28;100686;-69
2023/07/15 07:13:21;;;;;;;;;;;;;;;36.43;29.77;100160.03;4891214;28;98137;-68
2023/07/15 07:15:48;;;;;;;;;;;;;;;36.81;29.82;100161.97;4889643;28;99477;-69
2023/07/15 07:18:14;;;;;;;;;;;;;;;37.02;29.83;100160.44;4882636;28;100751;-68
2023/07/15 07:20:41;;;;;;;;;;;;;;;37.17;29.67;100155.88;4905967;28;98094;-69
2023/07/15 07:23:08;;;;;;;;;;;;;;;37.49;29.74;100143.47;4865228;28;98096;-69
2023/07/15 07:25:34;;;;;;;;;;;;;;;37.97;29.23;100143.25;4883117;28;98120;-68
2023/07/15 07:28:00;;;;;;;;;;;;;;;38.38;29.17;100141.19;4885216;28;99504;-68
2023/07/15 07:30:27;;;;;;;;;;;;;;;38.68;28.98;100139.50;4872775;28;100151;-68
2023/07/15 07:32:53;;;;;;;;;;;;;;;38.88;28.79;100133.41;4892232;28;98187;-68
2023/07/15 07:35:20;;;;;;;;;;;;;;;39.07;28.91;100128.50;4891410;28;98263;-79
2023/07/15 07:37:50;;;;;;;;;;;;;;;39.15;29.12;100124.94;4866992;28;99561;-80
2023/07/15 07:40:17;;;;;;;;;;;;;;;39.35;28.95;100130.06;4887106;28;100252;-76
2023/07/15 07:42:45;;;;;;;;;;;;;;;39.68;28.84;100126.53;4902317;28;98188;-74
2023/07/15 07:45:14;;;;;;;;;;;;;;;40.04;28.69;100125.56;4903951;28;99247;-74
2023/07/15 07:47:41;;;;;;;;;;;;;;;40.33;28.52;100119.31;4864733;28;98878;-74
2023/07/15 07:50:08;;;;;;;;;;;;;;;40.54;28.44;100123.06;4874239;28;97966;-73
2023/07/15 07:52:34;;;;;;;;;;;;;;;40.79;28.51;100118.16;4920264;28;98411;-74
2023/07/15 07:55:03;;;;;;;;;;;;;;;41.03;28.21;100120.94;4920369;28;98301;-74
2023/07/15 07:57:29;;;;;;;;;;;;;;;41.69;27.95;100117.69;4921024;28;99437;-72
2023/07/15 07:59:56;;;;;;;;;;;;;;;42.36;27.98;100107.34;4903907;28;98548;-71
2023/07/15 08:02:22;;;;;;;;;;;;;;;42.95;27.26;100109.06;4920198;28;99148;-71
2023/07/15 08:04:49;;;;;;;;;;;;;;;43.42;27.57;100100.47;4924435;28;98192;-74
2023/07/15 08:07:16;;;;;;;;;;;;;;;44.08;26.94;100099.38;4905207;28;100375;-73
2023/07/15 08:09:42;;;;;;;;;;;;;;;44.59;27.15;100106.06;4923380;28;98315;-73
2023/07/15 08:12:08;;;;;;;;;;;;;;;44.93;26.85;100101.25;4909889;28;98548;-69
2023/07/15 08:14:35;;;;;;;;;;;;;;;45.41;26.56;100097.38;4910516;28;98248;-69
2023/07/15 08:17:01;;;;;;;;;;;;;;;45.83;26.47;100086.22;4908405;28;111895;-70
2023/07/15 08:19:27;;;;;;;;;;;;;;;46.28;25.98;100084.03;4908848;28;99350;-69
2023/07/15 08:21:54;;;;;;;;;;;;;;;46.84;26.15;100086.53;4883173;28;99128;-72
2023/07/15 08:24:21;;;;;;;;;;;;;;;47.39;25.72;100078.09;4882122;28;99281;-72
2023/07/15 08:26:48;;;;;;;;;;;;;;;47.79;25.84;100069.91;4922029;28;98300;-69
2023/07/15 08:29:15;;;;;;;;;;;;;;;48.04;25.79;100079.22;4912247;28;98126;-72
2023/07/15 08:31:41;;;;;;;;;;;;;;;48.24;25.55;100077.97;4926740;28;98274;-72
2023/07/15 08:34:08;;;;;;;;;;;;;;;48.84;25.67;100071.94;4913602;28;98000;-73
2023/07/15 08:36:36;;;;;;;;;;;;;;;49.08;25.47;100063.19;4914556;28;98119;-72
2023/07/15 08:39:02;;;;;;;;;;;;;;;49.50;25.30;100066.41;4892795;28;98434;-72
2023/07/15 08:41:28;;;;;;;;;;;;;;;49.89;25.37;100064.13;4910654;28;98289;-69
2023/07/15 08:43:55;;;;;;;;;;;;;;;50.15;25.31;100063.28;4929930;28;98197;-70
2023/07/15 08:46:26;;;;;;;;;;;;;;;50.41;25.36;100065.34;4907257;28;98120;-72
2023/07/15 08:48:56;;;;;;;;;;;;;;;50.68;25.22;100066.81;4905034;28;98371;-72
2023/07/15 08:51:29;;;;;;;;;;;;;;;51.21;25.02;100057.16;4911112;28;98057;-72
2023/07/15 08:53:55;;;;;;;;;;;;;;;51.55;24.99;100063.53;4930944;28;98903;-71
2023/07/15 08:56:23;;;;;;;;;;;;;;;51.66;24.93;100061.72;4904539;28;98393;-69
2023/07/15 08:58:49;;;;;;;;;;;;;;;51.91;24.91;100062.06;4909020;28;98200;-72
2023/07/15 09:01:16;;;;;;;;;;;;;;;52.24;24.84;100046.72;4911746;28;98126;-71
2023/07/15 09:03:43;;;;;;;;;;;;;;;52.67;24.61;100055.84;4907129;28;98711;-71
2023/07/15 09:06:10;;;;;;;;;;;;;;;52.63;24.15;100049.66;4886825;28;99007;-68
2023/07/15 09:08:36;;;;;;;;;;;;;;;52.37;24.79;100045.00;4885077;28;98324;-67
2023/07/15 09:11:05;;;;;;;;;;;;;;;52.25;24.43;100048.25;4894478;28;98193;-71
2023/07/15 09:13:35;;;;;;;;;;;;;;;52.11;24.84;100038.19;4909049;28;98152;-71
2023/07/15 09:16:02;;;;;;;;;;;;;;;51.75;24.77;100041.09;4908156;28;98146;-68
2023/07/15 09:18:29;;;;;;;;;;;;;;;51.04;25.01;100043.25;4909212;28;99785;-71
2023/07/15 09:21:16;;;;;;;;;;;;;;;50.97;25.11;100050.44;4893187;28;98271;-70
2023/07/15 09:23:44;;;;;;;;;;;;;;;50.86;25.37;100042.13;4931653;28;98250;-67
2023/07/15 09:26:11;;;;;;;;;;;;;;;50.16;25.70;100036.97;4908408;28;98597;-70
2023/07/15 09:28:38;;;;;;;;;;;;;;;49.54;25.99;100040.31;4910408;28;99431;-68
2023/07/15 09:31:04;;;;;;;;;;;;;;;49.03;26.32;100032.63;4906041;28;98420;-70
2023/07/15 09:33:39;;;;;;;;;;;;;;;48.83;26.36;100025.44;4890072;28;98746;-68
2023/07/15 09:36:06;;;;;;;;;;;;;;;48.87;26.37;100025.13;4905254;28;99343;-68
2023/07/15 09:38:33;;;;;;;;;;;;;;;49.42;26.04;100027.53;4921739;28;98134;-68
2023/07/15 09:41:00;;;;;;;;;;;;;;;49.99;25.67;100033.69;4864236;28;99808;-67
2023/07/15 09:43:45;;;;;;;;;;;;;;;50.51;24.96;100027.06;4891624;28;98251;-68
2023/07/15 09:46:14;;;;;;;;;;;;;;;51.06;24.75;100021.28;4938030;28;98074;-71
2023/07/15 09:48:41;;;;;;;;;;;;;;;51.52;24.35;100015.88;4918912;28;100941;-68
2023/07/15 09:51:11;;;;;;;;;;;;;;;51.72;24.44;100014.28;4912621;28;98951;-68
2023/07/15 09:53:38;;;;;;;;;;;;;;;52.21;23.81;100016.22;4921306;28;99031;-70
2023/07/15 09:56:05;;;;;;;;;;;;;;;52.41;24.37;100010.91;4904258;28;98226;-68
2023/07/15 09:58:31;;;;;;;;;;;;;;;52.38;24.43;100000.56;4896854;28;98823;-68
2023/07/15 10:01:04;;;;;;;;;;;;;;;52.61;23.78;100003.50;4872987;28;99518;-71
2023/07/15 10:03:52;;;;;;;;;;;;;;;53.21;23.90;100013.44;4917741;28;98158;-71
2023/07/15 10:06:18;;;;;;;;;;;;;;;53.48;23.43;100008.03;4895626;28;98239;-68
2023/07/15 10:08:45;;;;;;;;;;;;;;;53.84;23.58;100001.97;4899881;28;98256;-71
2023/07/15 10:11:11;;;;;;;;;;;;;;;53.97;23.47;100006.75;4915714;28;98255;-71
2023/07/15 10:13:37;;;;;;;;;;;;;;;53.98;23.58;100007.53;4881736;28;99250;-68
2023/07/15 10:16:03;;;;;;;;;;;;;;;53.82;24.06;100006.81;4880245;28;98460;-71
2023/07/15 10:18:31;;;;;;;;;;;;;;;53.88;24.01;100008.13;4916921;28;98120;-68
2023/07/15 10:21:03;;;;;;;;;;;;;;;53.98;23.71;100007.53;4899730;28;98051;-68
2023/07/15 10:23:31;;;;;;;;;;;;;;;54.20;23.58;100000.84;4931114;28;98139;-68
2023/07/15 10:26:07;;;;;;;;;;;;;;;54.34;23.91;99999.25;4915096;28;98608;-71
2023/07/15 10:28:38;;;;;;;;;;;;;;;54.30;23.90;100006.78;4853228;28;98459;-68
2023/07/15 10:31:11;;;;;;;;;;;;;;;54.12;24.25;100000.91;4889153;28;99059;-69
2023/07/15 10:33:56;;;;;;;;;;;;;;;53.98;23.95;99999.66;4927981;28;98031;-70
2023/07/15 10:36:35;;;;;;;;;;;;;;;53.95;24.38;99987.16;4903466;28;99672;-71
2023/07/15 10:39:16;;;;;;;;;;;;;;;54.08;24.21;99988.25;4914606;28;98004;-68
2023/07/15 10:41:43;;;;;;;;;;;;;;;54.01;24.03;99992.72;4910455;28;98217;-68
2023/07/15 10:44:20;;;;;;;;;;;;;;;53.88;24.09;99993.72;4915717;28;98103;-70
2023/07/15 10:47:03;;;;;;;;;;;;;;;53.81;23.78;99999.50;4911517;28;99299;-70
2023/07/15 10:49:30;;;;;;;;;;;;;;;53.98;23.93;99996.00;4908149;28;98953;-71
2023/07/15 10:51:57;;;;;;;;;;;;;;;53.96;24.05;99985.06;4893355;28;100029;-70
2023/07/15 10:54:26;;;;;;;;;;;;;;;54.12;23.50;99992.28;4911674;28;99314;-68
2023/07/15 10:56:52;;;;;;;;;;;;;;;54.22;23.84;99992.44;4907221;28;98842;-70
2023/07/15 10:59:20;;;;;;;;;;;;;;;54.04;23.87;99990.78;4911668;28;98465;-71
2023/07/15 11:01:46;;;;;;;;;;;;;;;53.96;24.14;99990.81;4878929;28;98171;-71
2023/07/15 11:04:12;;;;;;;;;;;;;;;53.90;23.76;99990.28;4884263;28;98160;-68
2023/07/15 11:06:38;;;;;;;;;;;;;;;53.86;24.12;99987.00;4887157;28;98559;-67
2023/07/15 11:09:18;;;;;;;;;;;;;;;53.71;24.20;99988.59;4911780;28;128429;-67
2023/07/15 11:11:44;;;;;;;;;;;;;;;53.67;23.91;99970.97;4911174;28;99248;-71
2023/07/15 11:14:27;;;;;;;;;;;;;;;53.43;24.30;99983.13;4925157;28;99791;-67
2023/07/15 11:16:57;;;;;;;;;;;;;;;53.38;24.42;99987.00;4886385;28;98308;-71
2023/07/15 11:19:23;;;;;;;;;;;;;;;53.39;24.30;99995.03;4907779;28;98453;-67
2023/07/15 11:21:51;;;;;;;;;;;;;;;53.27;24.40;99981.66;4891718;28;98276;-70
2023/07/15 11:24:17;;;;;;;;;;;;;;;53.04;24.50;99973.78;4896966;28;98154;-71
2023/07/15 11:26:44;;;;;;;;;;;;;;;52.82;24.59;99969.56;4899412;28;109341;-71
2023/07/15 11:29:14;;;;;;;;;;;;;;;52.58;24.80;99956.53;4893536;28;98095;-71
2023/07/15 11:31:44;;;;;;;;;;;;;;;52.42;24.48;99961.47;4891045;28;99099;-67
2023/07/15 11:34:10;;;;;;;;;;;;;;;52.17;25.04;99958.38;4922154;28;98280;-67
2023/07/15 11:36:38;;;;;;;;;;;;;;;51.79;24.84;99969.72;4909848;28;98066;-68
2023/07/15 11:39:07;;;;;;;;;;;;;;;51.38;25.14;99967.78;4900020;28;99387;-68
2023/07/15 11:41:36;;;;;;;;;;;;;;;51.09;25.23;99956.28;4911096;28;99071;-68
2023/07/15 11:44:13;;;;;;;;;;;;;;;50.68;25.38;99957.88;4932673;28;98367;-68
2023/07/15 11:46:39;;;;;;;;;;;;;;;50.30;25.52;99949.69;4891196;28;106041;-71
2023/07/15 11:49:05;;;;;;;;;;;;;;;50.14;25.81;99953.69;4913135;28;98387;-68
2023/07/15 11:51:36;;;;;;;;;;;;;;;49.86;26.09;99949.38;4905033;28;98442;-68
2023/07/15 11:54:08;;;;;;;;;;;;;;;49.68;26.04;99950.28;4912118;28;98261;-70
2023/07/15 11:56:44;;;;;;;;;;;;;;;49.32;26.15;99938.50;4911841;28;98552;-71
2023/07/15 11:59:29;;;;;;;;;;;;;;;49.29;26.00;99940.41;4905456;28;99580;-68
2023/07/15 12:01:57;;;;;;;;;;;;;;;49.08;26.31;99939.47;4902559;28;99891;-72
2023/07/15 12:04:26;;;;;;;;;;;;;;;48.78;26.15;99942.66;4881341;28;98232;-68
2023/07/15 12:06:55;;;;;;;;;;;;;;;48.46;26.38;99934.81;4880782;28;98695;-67
2023/07/15 12:09:21;;;;;;;;;;;;;;;48.30;26.28;99930.13;4880184;28;98582;-68
2023/07/15 12:11:48;;;;;;;;;;;;;;;48.16;26.38;99932.19;4888650;28;98594;-68
2023/07/15 12:14:15;;;;;;;;;;;;;;;47.96;26.38;99922.06;4883907;28;98427;-72
2023/07/15 12:16:41;;;;;;;;;;;;;;;47.69;25.98;99924.78;4916419;28;101206;-72
2023/07/15 12:19:12;;;;;;;;;;;;;;;46.94;26.43;99916.00;4933162;28;98236;-68
2023/07/15 12:21:38;;;;;;;;;;;;;;;47.06;26.10;99922.38;4912509;28;98570;-67
2023/07/15 12:24:04;;;;;;;;;;;;;;;47.06;25.98;99917.44;4915739;28;103582;-67
2023/07/15 12:26:31;;;;;;;;;;;;;;;47.06;25.98;99926.00;4899705;28;105238;-71
2023/07/15 12:28:57;;;;;;;;;;;;;;;46.59;26.51;99922.53;4885890;28;99244;-70
2023/07/15 12:31:23;;;;;;;;;;;;;;;46.38;26.39;99916.47;4881670;28;106597;-71
2023/07/15 12:33:49;;;;;;;;;;;;;;;46.38;26.54;99914.41;4922945;28;100208;-71
2023/07/15 12:36:17;;;;;;;;;;;;;;;46.77;26.47;99921.84;4908668;28;106397;-71
2023/07/15 12:38:43;;;;;;;;;;;;;;;45.88;26.98;99914.72;4920302;28;99030;-68
2023/07/15 12:41:09;;;;;;;;;;;;;;;45.71;27.06;99915.56;4917923;28;99730;-70